createdAt,value
2022-09-12T00:03:21.977Z,1017.95
2022-09-12T00:08:29.152Z,1017.96
2022-09-12T00:13:40.847Z,1017.89
2022-09-12T00:18:43.559Z,1017.83
2022-09-12T00:23:50.744Z,1017.84
2022-09-12T00:28:58.030Z,1017.80
2022-09-12T00:34:05.277Z,1017.77
2022-09-12T00:39:12.471Z,1017.76
2022-09-12T00:44:19.781Z,1017.70
2022-09-12T00:49:26.860Z,1017.63
2022-09-12T00:54:34.068Z,1017.56
2022-09-12T00:59:41.298Z,1017.52
2022-09-12T01:04:48.515Z,1017.56
2022-09-12T01:09:55.695Z,1017.45
2022-09-12T01:15:02.910Z,1017.38
2022-09-12T01:20:10.090Z,1017.29
2022-09-12T01:25:17.252Z,1017.31
2022-09-12T01:30:24.463Z,1017.26
2022-09-12T01:35:31.685Z,1017.19
2022-09-12T01:40:40.867Z,1017.21
2022-09-12T01:45:48.208Z,1017.18
2022-09-12T01:50:55.584Z,1017.11
2022-09-12T01:56:02.809Z,1017.15
2022-09-12T02:01:10.090Z,1017.12
2022-09-12T02:06:17.146Z,1017.11
2022-09-12T02:11:24.389Z,1017.13
2022-09-12T02:16:31.648Z,1017.12
2022-09-12T02:21:38.833Z,1017.08
2022-09-12T02:26:46.069Z,1016.99
2022-09-12T02:31:53.301Z,1016.98
2022-09-12T02:37:00.508Z,1016.95
2022-09-12T02:42:07.760Z,1016.97
2022-09-12T02:47:15.016Z,1016.93
2022-09-12T02:52:22.237Z,1016.90
2022-09-12T02:57:29.439Z,1016.92
2022-09-12T03:02:36.635Z,1016.88
2022-09-12T03:07:43.774Z,1016.84
2022-09-12T03:12:50.946Z,1016.79
2022-09-12T03:17:58.230Z,1016.75
2022-09-12T03:23:05.461Z,1016.73
2022-09-12T03:28:12.665Z,1016.71
2022-09-12T03:33:19.909Z,1016.65
2022-09-12T03:38:27.039Z,1016.64
2022-09-12T03:43:34.290Z,1016.71
2022-09-12T03:48:41.669Z,1016.68
2022-09-12T03:53:48.710Z,1016.70
2022-09-12T03:58:55.884Z,1016.74
2022-09-12T04:04:03.072Z,1016.74
2022-09-12T04:09:10.327Z,1016.71
2022-09-12T04:14:17.563Z,1016.73
2022-09-12T04:19:24.836Z,1016.69
2022-09-12T04:24:31.986Z,1016.71
2022-09-12T04:29:39.191Z,1016.76
2022-09-12T04:34:46.428Z,1016.83
2022-09-12T04:39:53.716Z,1016.83
2022-09-12T04:45:00.846Z,1016.94
2022-09-12T04:50:08.165Z,1016.92
2022-09-12T04:55:15.379Z,1016.93
2022-09-12T05:00:22.562Z,1016.96
2022-09-12T05:05:29.799Z,1016.97
2022-09-12T05:10:37.037Z,1017.03
2022-09-12T05:15:44.283Z,1017.08
2022-09-12T05:20:51.495Z,1017.09
2022-09-12T05:25:58.692Z,1017.11
2022-09-12T05:31:05.919Z,1017.10
2022-09-12T05:36:13.116Z,1017.19
2022-09-12T05:41:24.674Z,1017.19
2022-09-12T05:46:27.526Z,1017.22
2022-09-12T05:51:34.754Z,1017.17
2022-09-12T05:56:41.915Z,1017.23
2022-09-12T06:01:49.319Z,1017.21
2022-09-12T06:06:56.324Z,1017.18
2022-09-12T06:12:03.518Z,1017.20
2022-09-12T06:17:10.723Z,1017.18
2022-09-12T06:22:17.925Z,1017.15
2022-09-12T06:27:25.143Z,1017.19
2022-09-12T06:32:32.342Z,1017.19
2022-09-12T06:37:39.589Z,1017.15
2022-09-12T06:42:46.725Z,1017.15
2022-09-12T06:47:53.908Z,1017.11
2022-09-12T06:53:01.186Z,1017.15
2022-09-12T06:58:08.677Z,1017.17
2022-09-12T07:03:15.879Z,1017.21
2022-09-12T07:08:23.103Z,1017.21
2022-09-12T07:13:30.288Z,1017.19
2022-09-12T07:18:37.461Z,1017.16
2022-09-12T07:23:44.825Z,1017.12
2022-09-12T07:28:51.914Z,1017.12
2022-09-12T07:33:59.124Z,1017.07
2022-09-12T07:39:06.347Z,1017.02
2022-09-12T07:44:13.527Z,1017.01
2022-09-12T07:49:20.723Z,1017.08
2022-09-12T07:54:27.995Z,1017.04
2022-09-12T07:59:52.030Z,1017.04
2022-09-12T08:04:42.340Z,1016.99
2022-09-12T08:09:49.573Z,1017.01
2022-09-12T08:14:56.715Z,1017.01
2022-09-12T08:20:03.955Z,1016.97
2022-09-12T08:25:11.160Z,1016.96
2022-09-12T08:30:18.368Z,1016.89
2022-09-12T08:35:25.596Z,1016.89
2022-09-12T08:40:32.787Z,1016.82
2022-09-12T08:45:40.071Z,1016.82
2022-09-12T08:50:49.853Z,1016.88
2022-09-12T08:55:54.501Z,1016.85
2022-09-12T09:01:01.615Z,1016.80
2022-09-12T09:06:08.826Z,1016.82
2022-09-12T09:11:16.009Z,1016.82
2022-09-12T09:16:23.142Z,1016.77
2022-09-12T09:21:30.324Z,1016.69
2022-09-12T09:26:37.471Z,1016.66
2022-09-12T09:31:44.725Z,1016.69
2022-09-12T09:36:51.906Z,1016.70
2022-09-12T09:41:59.141Z,1016.69
2022-09-12T09:47:06.309Z,1016.69
2022-09-12T09:52:13.507Z,1016.63
2022-09-12T09:57:20.768Z,1016.59
2022-09-12T10:02:28.029Z,1016.58
2022-09-12T10:07:35.170Z,1016.57
2022-09-12T10:12:42.424Z,1016.58
2022-09-12T10:17:49.562Z,1016.48
2022-09-12T10:22:56.714Z,1016.46
2022-09-12T10:28:03.956Z,1016.40
2022-09-12T10:33:11.181Z,1016.38
2022-09-12T10:38:18.424Z,1016.38
2022-09-12T10:43:25.606Z,1016.36
2022-09-12T10:48:32.787Z,1016.37
2022-09-12T10:53:39.973Z,1016.31
2022-09-12T10:58:47.177Z,1016.32
2022-09-12T11:03:54.315Z,1016.27
2022-09-12T11:09:01.495Z,1016.21
2022-09-12T11:14:08.666Z,1016.18
2022-09-12T11:19:15.803Z,1016.18
2022-09-12T11:24:23.045Z,1016.15
2022-09-12T11:29:30.279Z,1016.12
2022-09-12T11:34:37.419Z,1016.11
2022-09-12T11:39:44.748Z,1016.11
2022-09-12T11:44:52.055Z,1016.02
2022-09-12T11:49:59.274Z,1015.98
2022-09-12T11:55:06.495Z,1015.95
2022-09-12T12:00:13.686Z,1015.96
2022-09-12T12:05:20.881Z,1015.96
2022-09-12T12:10:28.052Z,1015.98
2022-09-12T12:15:35.321Z,1016.02
2022-09-12T12:20:42.478Z,1015.94
2022-09-12T12:25:49.679Z,1015.84
2022-09-12T12:30:56.942Z,1015.82
2022-09-12T12:36:04.083Z,1015.81
2022-09-12T12:41:11.287Z,1015.74
2022-09-12T12:46:18.505Z,1015.72
2022-09-12T12:51:25.591Z,1015.71
2022-09-12T12:56:32.797Z,1015.68
2022-09-12T13:01:40.149Z,1015.64
2022-09-12T13:06:47.209Z,1015.49
2022-09-12T13:11:54.363Z,1015.47
2022-09-12T13:17:01.637Z,1015.36
2022-09-12T13:22:08.850Z,1015.32
2022-09-12T13:27:16.022Z,1015.22
2022-09-12T13:32:23.253Z,1015.11
2022-09-12T13:37:30.435Z,1015.11
2022-09-12T13:42:37.598Z,1015.05
2022-09-12T13:47:44.877Z,1015.03
2022-09-12T13:52:52.150Z,1014.92
2022-09-12T13:57:59.352Z,1014.94
2022-09-12T14:03:06.564Z,1014.89
2022-09-12T14:08:13.765Z,1014.88
2022-09-12T14:13:20.973Z,1014.82
2022-09-12T14:18:28.194Z,1014.81
2022-09-12T14:23:35.421Z,1014.75
2022-09-12T14:28:42.664Z,1014.69
2022-09-12T14:33:49.846Z,1014.67
2022-09-12T14:38:57.020Z,1014.70
2022-09-12T14:44:04.207Z,1014.64
2022-09-12T14:49:11.495Z,1014.67
2022-09-12T14:54:18.638Z,1014.69
2022-09-12T14:59:25.815Z,1014.61
2022-09-12T15:04:33.096Z,1014.66
2022-09-12T15:09:45.571Z,1014.62
2022-09-12T15:14:47.427Z,1014.61
2022-09-12T15:19:54.874Z,1014.61
2022-09-12T15:25:02.115Z,1014.60
2022-09-12T15:30:09.315Z,1014.60
2022-09-12T15:35:16.558Z,1014.62
2022-09-12T15:40:23.687Z,1014.44
2022-09-12T15:45:30.869Z,1014.45
2022-09-12T15:50:38.113Z,1014.40
2022-09-12T15:55:45.270Z,1014.38
2022-09-12T16:00:52.503Z,1014.44
2022-09-12T16:05:59.883Z,1014.43
2022-09-12T16:11:06.878Z,1014.45
2022-09-12T16:16:14.180Z,1014.47
2022-09-12T16:21:21.401Z,1014.36
2022-09-12T16:26:28.481Z,1014.34
2022-09-12T16:31:35.719Z,1014.35
2022-09-12T16:36:43.044Z,1014.30
2022-09-12T16:41:50.129Z,1014.27
2022-09-12T16:46:57.392Z,1014.25
2022-09-12T16:52:04.681Z,1014.27
2022-09-12T16:57:11.936Z,1014.31
2022-09-12T17:02:19.185Z,1014.31
2022-09-12T17:07:26.364Z,1014.37
2022-09-12T17:12:33.540Z,1014.41
2022-09-12T17:17:40.750Z,1014.47
2022-09-12T17:22:48.021Z,1014.50
2022-09-12T17:27:55.229Z,1014.46
2022-09-12T17:33:02.481Z,1014.45
2022-09-12T17:38:12.288Z,1014.54
2022-09-12T17:43:17.201Z,1014.61
2022-09-12T17:48:24.557Z,1014.65
2022-09-12T17:53:31.840Z,1014.58
2022-09-12T17:58:39.307Z,1014.66
2022-09-12T18:03:46.923Z,1014.67
2022-09-12T18:08:54.302Z,1014.72
2022-09-12T18:14:01.657Z,1014.78
2022-09-12T18:19:08.904Z,1014.77
2022-09-12T18:24:16.378Z,1014.84
2022-09-12T18:29:24.079Z,1014.85
2022-09-12T18:34:31.790Z,1014.96
2022-09-12T18:39:39.489Z,1014.93
2022-09-12T18:44:46.912Z,1014.95
2022-09-12T18:49:54.529Z,1014.96
2022-09-12T18:55:02.175Z,1014.97
2022-09-12T19:00:12.427Z,1014.95
2022-09-12T19:05:17.385Z,1014.92
2022-09-12T19:10:24.907Z,1014.90
2022-09-12T19:15:32.694Z,1014.87
2022-09-12T19:20:40.116Z,1014.91
2022-09-12T19:25:47.833Z,1014.87
2022-09-12T19:30:55.355Z,1014.82
2022-09-12T19:36:02.618Z,1014.85
2022-09-12T19:41:13.455Z,1014.83
2022-09-12T19:46:17.252Z,1014.78
2022-09-12T19:51:25.044Z,1014.77
2022-09-12T19:56:32.902Z,1014.75
2022-09-12T20:01:40.505Z,1014.78
2022-09-12T20:06:47.680Z,1014.79
2022-09-12T20:11:54.971Z,1014.79
2022-09-12T20:17:02.133Z,1014.76
2022-09-12T20:22:09.379Z,1014.82
2022-09-12T20:27:16.714Z,1014.77
2022-09-12T20:32:23.767Z,1014.74
2022-09-12T20:37:31.009Z,1014.76
2022-09-12T20:42:38.236Z,1014.79
2022-09-12T20:47:45.459Z,1014.71
2022-09-12T20:52:52.668Z,1014.71
2022-09-12T20:57:59.905Z,1014.58
2022-09-12T21:03:07.159Z,1014.62
2022-09-12T21:08:14.376Z,1014.58
2022-09-12T21:13:21.611Z,1014.65
2022-09-12T21:18:28.804Z,1014.64
2022-09-12T21:23:36.565Z,1014.64
2022-09-12T21:28:44.147Z,1014.68
2022-09-12T21:33:51.249Z,1014.65
2022-09-12T21:38:58.683Z,1014.65
2022-09-12T21:44:05.901Z,1014.63
2022-09-12T21:49:13.076Z,1014.68
2022-09-12T21:54:20.300Z,1014.63
2022-09-12T21:59:27.682Z,1014.60
2022-09-12T22:04:34.795Z,1014.55
2022-09-12T22:09:42.067Z,1014.44
2022-09-12T22:14:49.378Z,1014.44
2022-09-12T22:19:56.462Z,1014.55
2022-09-12T22:25:03.692Z,1014.40
2022-09-12T22:30:10.914Z,1014.35
2022-09-12T22:35:18.067Z,1014.42
2022-09-12T22:40:25.192Z,1014.37
2022-09-12T22:45:32.439Z,1014.33
2022-09-12T22:50:39.637Z,1014.33
2022-09-12T22:55:46.836Z,1014.22
2022-09-12T23:00:54.143Z,1014.21
2022-09-12T23:06:01.237Z,1014.18
2022-09-12T23:11:08.456Z,1014.11
2022-09-12T23:16:15.724Z,1014.18
2022-09-12T23:21:22.834Z,1014.08
2022-09-12T23:26:30.048Z,1013.99
2022-09-12T23:31:37.475Z,1014.09
2022-09-12T23:36:44.574Z,1014.00
2022-09-12T23:41:51.770Z,1013.93
2022-09-12T23:46:59.734Z,1013.92
2022-09-12T23:52:06.983Z,1013.95
2022-09-12T23:57:14.236Z,1013.89
